createdAt,value
2023-04-28T00:00:59.969Z,28
2023-04-28T00:02:06.997Z,28
2023-04-28T00:03:14.856Z,27
2023-04-28T00:04:22.042Z,29
2023-04-28T00:05:28.443Z,30
2023-04-28T00:06:35.210Z,28
2023-04-28T00:07:41.978Z,29
2023-04-28T00:08:48.859Z,30
2023-04-28T00:09:55.646Z,30
2023-04-28T00:11:02.512Z,30
2023-04-28T00:12:12.226Z,29
2023-04-28T00:13:18.999Z,29
2023-04-28T00:14:25.869Z,28
2023-04-28T00:15:32.729Z,29
2023-04-28T00:16:40.544Z,31
2023-04-28T00:17:47.367Z,32
2023-04-28T00:18:54.266Z,33
2023-04-28T00:20:01.026Z,34
2023-04-28T00:21:08.309Z,38
2023-04-28T00:22:15.129Z,38
2023-04-28T00:23:22.026Z,34
2023-04-28T00:24:28.859Z,38
2023-04-28T00:25:35.713Z,36
2023-04-28T00:26:42.615Z,35
2023-04-28T00:27:49.423Z,38
2023-04-28T00:28:56.287Z,36
2023-04-28T00:30:03.220Z,36
2023-04-28T00:31:10.525Z,34
2023-04-28T00:32:18.214Z,35
2023-04-28T00:33:25.221Z,37
2023-04-28T00:34:32.194Z,36
2023-04-28T00:35:41.943Z,35
2023-04-28T00:36:48.948Z,35
2023-04-28T00:37:55.816Z,36
2023-04-28T00:39:02.635Z,36
2023-04-28T00:40:09.451Z,37
2023-04-28T00:41:16.572Z,38
2023-04-28T00:42:23.347Z,35
2023-04-28T00:43:30.981Z,35
2023-04-28T00:44:38.661Z,36
2023-04-28T00:45:45.519Z,37
2023-04-28T00:46:53.270Z,36
2023-04-28T00:48:00.266Z,37
2023-04-28T00:49:07.090Z,40
2023-04-28T00:50:13.917Z,38
2023-04-28T00:51:20.686Z,35
2023-04-28T00:52:27.509Z,36
2023-04-28T00:53:34.309Z,41
2023-04-28T00:54:41.131Z,38
2023-04-28T00:55:47.902Z,39
2023-04-28T00:56:54.658Z,36
2023-04-28T00:58:02.399Z,39
2023-04-28T00:59:09.214Z,40
2023-04-28T01:00:16.118Z,35
2023-04-28T01:01:22.984Z,38
2023-04-28T01:02:29.948Z,36
2023-04-28T01:03:36.807Z,35
2023-04-28T01:04:43.735Z,36
2023-04-28T01:05:50.562Z,36
2023-04-28T01:06:57.345Z,35
2023-04-28T01:08:04.185Z,34
2023-04-28T01:09:10.931Z,34
2023-04-28T01:10:17.822Z,35
2023-04-28T01:11:24.721Z,37
2023-04-28T01:12:31.532Z,37
2023-04-28T01:13:38.383Z,35
2023-04-28T01:14:45.262Z,35
2023-04-28T01:15:52.079Z,33
2023-04-28T01:16:59.140Z,31
2023-04-28T01:18:05.965Z,30
2023-04-28T01:19:12.692Z,29
2023-04-28T01:20:19.444Z,28
2023-04-28T01:21:26.285Z,30
2023-04-28T01:22:36.426Z,29
2023-04-28T01:23:43.262Z,29
2023-04-28T01:24:50.101Z,30
2023-04-28T01:25:57.840Z,30
2023-04-28T01:27:04.618Z,33
2023-04-28T01:28:11.480Z,30
2023-04-28T01:29:18.275Z,33
2023-04-28T01:30:25.266Z,33
2023-04-28T01:31:32.108Z,33
2023-04-28T01:32:39.012Z,33
2023-04-28T01:33:45.882Z,33
2023-04-28T01:34:52.744Z,32
2023-04-28T01:35:59.647Z,33
2023-04-28T01:37:06.621Z,31
2023-04-28T01:38:13.366Z,30
2023-04-28T01:39:20.194Z,30
2023-04-28T01:40:27.031Z,30
2023-04-28T01:41:33.901Z,31
2023-04-28T01:42:40.679Z,29
2023-04-28T01:43:47.571Z,31
2023-04-28T01:44:54.412Z,30
2023-04-28T01:46:01.217Z,33
2023-04-28T01:47:08.125Z,32
2023-04-28T01:48:17.009Z,34
2023-04-28T01:49:23.889Z,33
2023-04-28T01:50:30.703Z,32
2023-04-28T01:51:37.535Z,32
2023-04-28T01:52:45.354Z,32
2023-04-28T01:53:52.073Z,32
2023-04-28T01:54:58.878Z,31
2023-04-28T01:56:05.703Z,30
2023-04-28T01:57:12.622Z,31
2023-04-28T01:58:19.422Z,30
2023-04-28T01:59:26.389Z,32
2023-04-28T02:00:33.251Z,30
2023-04-28T02:01:40.074Z,31
2023-04-28T02:02:47.737Z,30
2023-04-28T02:03:54.641Z,29
2023-04-28T02:05:01.410Z,30
2023-04-28T02:06:08.454Z,29
2023-04-28T02:07:15.261Z,29
2023-04-28T02:08:23.020Z,29
2023-04-28T02:09:29.889Z,29
2023-04-28T02:10:36.670Z,30
2023-04-28T02:11:43.710Z,30
2023-04-28T02:12:50.603Z,30
2023-04-28T02:13:57.359Z,30
2023-04-28T02:15:04.147Z,30
2023-04-28T02:16:11.278Z,28
2023-04-28T02:17:18.072Z,26
2023-04-28T02:18:25.056Z,24
2023-04-28T02:19:31.832Z,24
2023-04-28T02:20:38.644Z,24
2023-04-28T02:21:45.498Z,22
2023-04-28T02:22:52.303Z,25
2023-04-28T02:23:59.188Z,26
2023-04-28T02:25:06.022Z,25
2023-04-28T02:26:12.917Z,27
2023-04-28T02:27:19.714Z,28
2023-04-28T02:28:27.459Z,26
2023-04-28T02:29:34.412Z,28
2023-04-28T02:30:41.424Z,28
2023-04-28T02:31:49.003Z,27
2023-04-28T02:32:56.560Z,28
2023-04-28T02:34:03.337Z,28
2023-04-28T02:35:10.146Z,29
2023-04-28T02:36:17.077Z,31
2023-04-28T02:37:24.164Z,32
2023-04-28T02:38:30.985Z,33
2023-04-28T02:39:37.843Z,35
2023-04-28T02:40:44.642Z,35
2023-04-28T02:41:51.678Z,35
2023-04-28T02:42:58.597Z,37
2023-04-28T02:44:05.415Z,38
2023-04-28T02:45:12.436Z,37
2023-04-28T02:46:19.393Z,37
2023-04-28T02:47:26.218Z,35
2023-04-28T02:48:33.142Z,30
2023-04-28T02:49:39.996Z,27
2023-04-28T02:50:46.912Z,28
2023-04-28T02:51:53.863Z,29
2023-04-28T02:53:00.625Z,28
2023-04-28T02:54:07.490Z,26
2023-04-28T02:55:14.371Z,29
2023-04-28T02:56:21.169Z,29
2023-04-28T02:57:28.008Z,28
2023-04-28T02:58:34.778Z,27
2023-04-28T02:59:41.668Z,28
2023-04-28T03:00:48.627Z,30
2023-04-28T03:01:55.451Z,28
2023-04-28T03:03:02.431Z,26
2023-04-28T03:04:09.188Z,27
2023-04-28T03:05:16.001Z,27
2023-04-28T03:06:22.893Z,25
2023-04-28T03:07:29.663Z,27
2023-04-28T03:08:36.440Z,26
2023-04-28T03:09:43.278Z,26
2023-04-28T03:10:51.110Z,26
2023-04-28T03:11:58.004Z,28
2023-04-28T03:13:04.862Z,28
2023-04-28T03:14:11.654Z,27
2023-04-28T03:15:18.553Z,28
2023-04-28T03:16:26.398Z,30
2023-04-28T03:17:33.342Z,29
2023-04-28T03:18:40.200Z,29
2023-04-28T03:19:47.084Z,29
2023-04-28T03:20:53.934Z,31
2023-04-28T03:22:00.795Z,30
2023-04-28T03:23:07.691Z,29
2023-04-28T03:24:14.820Z,28
2023-04-28T03:25:21.484Z,25
2023-04-28T03:26:28.647Z,25
2023-04-28T03:27:35.500Z,24
2023-04-28T03:28:42.396Z,25
2023-04-28T03:29:49.242Z,25
2023-04-28T03:30:56.135Z,25
2023-04-28T03:32:02.946Z,25
2023-04-28T03:33:09.817Z,24
2023-04-28T03:34:16.831Z,26
2023-04-28T03:35:23.582Z,25
2023-04-28T03:36:30.355Z,24
2023-04-28T03:37:37.326Z,26
2023-04-28T03:38:44.135Z,25
2023-04-28T03:39:51.428Z,25
2023-04-28T03:40:58.277Z,25
2023-04-28T03:42:05.234Z,26
2023-04-28T03:43:12.126Z,26
2023-04-28T03:44:19.862Z,24
2023-04-28T03:45:26.667Z,25
2023-04-28T03:46:33.512Z,25
2023-04-28T03:47:40.371Z,24
2023-04-28T03:48:47.250Z,24
2023-04-28T03:49:54.098Z,25
2023-04-28T03:51:01.041Z,25
2023-04-28T03:52:07.863Z,25
2023-04-28T03:53:14.753Z,25
2023-04-28T03:54:21.993Z,26
2023-04-28T03:55:29.056Z,25
2023-04-28T03:56:35.816Z,24
2023-04-28T03:57:42.686Z,25
2023-04-28T03:58:49.470Z,24
2023-04-28T03:59:56.278Z,25
2023-04-28T04:01:03.097Z,24
2023-04-28T04:02:09.901Z,23
2023-04-28T04:03:16.763Z,24
2023-04-28T04:04:23.771Z,23
2023-04-28T04:05:30.147Z,22
2023-04-28T04:06:37.076Z,23
2023-04-28T04:07:43.828Z,23
2023-04-28T04:08:50.575Z,23
2023-04-28T04:09:58.186Z,22
2023-04-28T04:11:04.941Z,23
2023-04-28T04:12:11.932Z,23
2023-04-28T04:13:18.794Z,22
2023-04-28T04:14:25.587Z,22
2023-04-28T04:15:32.444Z,23
2023-04-28T04:16:39.389Z,22
2023-04-28T04:17:46.269Z,22
2023-04-28T04:18:53.104Z,23
2023-04-28T04:20:00.053Z,24
2023-04-28T04:21:07.083Z,23
2023-04-28T04:22:13.880Z,22
2023-04-28T04:23:20.770Z,23
2023-04-28T04:24:27.653Z,23
2023-04-28T04:25:34.413Z,24
2023-04-28T04:26:42.160Z,23
2023-04-28T04:27:49.036Z,24
2023-04-28T04:28:56.753Z,24
2023-04-28T04:30:02.856Z,26
2023-04-28T04:31:10.353Z,26
2023-04-28T04:32:17.147Z,27
2023-04-28T04:33:25.216Z,26
2023-04-28T04:34:32.090Z,26
2023-04-28T04:35:38.928Z,27
2023-04-28T04:36:45.804Z,27
2023-04-28T04:37:52.903Z,27
2023-04-28T04:38:59.753Z,28
2023-04-28T04:40:06.679Z,26
2023-04-28T04:41:13.741Z,26
2023-04-28T04:42:25.185Z,23
2023-04-28T04:43:27.891Z,23
2023-04-28T04:44:34.732Z,24
2023-04-28T04:45:41.520Z,23
2023-04-28T04:46:48.443Z,23
2023-04-28T04:47:55.287Z,22
2023-04-28T04:49:02.179Z,24
2023-04-28T04:50:09.124Z,25
2023-04-28T04:51:16.842Z,25
2023-04-28T04:52:23.598Z,23
2023-04-28T04:53:30.420Z,23
2023-04-28T04:54:37.384Z,23
2023-04-28T04:55:44.228Z,24
2023-04-28T04:56:51.218Z,25
2023-04-28T04:57:58.894Z,25
2023-04-28T04:59:05.746Z,25
2023-04-28T05:00:12.635Z,27
2023-04-28T05:01:19.829Z,28
2023-04-28T05:02:26.746Z,31
2023-04-28T05:03:33.762Z,30
2023-04-28T05:04:40.488Z,32
2023-04-28T05:05:47.112Z,31
2023-04-28T05:06:54.006Z,31
2023-04-28T05:08:01.018Z,28
2023-04-28T05:09:07.848Z,28
2023-04-28T05:10:14.730Z,26
2023-04-28T05:11:21.671Z,26
2023-04-28T05:12:28.666Z,26
2023-04-28T05:13:35.595Z,25
2023-04-28T05:14:42.410Z,25
2023-04-28T05:15:49.344Z,24
2023-04-28T05:16:56.196Z,24
2023-04-28T05:18:03.154Z,24
2023-04-28T05:19:10.507Z,23
2023-04-28T05:20:17.391Z,24
2023-04-28T05:21:24.326Z,23
2023-04-28T05:22:31.147Z,23
2023-04-28T05:23:38.030Z,21
2023-04-28T05:24:44.901Z,20
2023-04-28T05:25:51.826Z,20
2023-04-28T05:26:58.757Z,21
2023-04-28T05:28:05.650Z,18
2023-04-28T05:29:12.519Z,19
2023-04-28T05:30:19.386Z,20
2023-04-28T05:31:26.407Z,21
2023-04-28T05:32:33.303Z,21
2023-04-28T05:33:40.055Z,22
2023-04-28T05:34:46.937Z,25
2023-04-28T05:35:53.837Z,28
2023-04-28T05:37:00.715Z,26
2023-04-28T05:38:07.684Z,26
2023-04-28T05:39:14.539Z,26
2023-04-28T05:40:21.467Z,28
2023-04-28T05:41:28.487Z,27
2023-04-28T05:42:36.702Z,26
2023-04-28T05:43:43.530Z,26
2023-04-28T05:44:50.465Z,25
2023-04-28T05:45:58.263Z,24
2023-04-28T05:47:05.066Z,24
2023-04-28T05:48:12.072Z,22
2023-04-28T05:49:19.052Z,21
2023-04-28T05:50:25.967Z,21
2023-04-28T05:51:32.862Z,22
2023-04-28T05:52:39.709Z,21
2023-04-28T05:53:46.470Z,21
2023-04-28T05:54:54.415Z,21
2023-04-28T05:56:01.176Z,19
2023-04-28T05:57:08.299Z,20
2023-04-28T05:58:15.235Z,19
2023-04-28T05:59:22.980Z,19
2023-04-28T06:00:29.850Z,19
2023-04-28T06:01:37.613Z,18
2023-04-28T06:02:44.717Z,18
2023-04-28T06:03:51.650Z,17
2023-04-28T06:04:58.376Z,17
2023-04-28T06:06:09.001Z,16
2023-04-28T06:07:13.094Z,15
2023-04-28T06:08:20.864Z,16
2023-04-28T06:09:27.731Z,15
2023-04-28T06:10:34.527Z,15
2023-04-28T06:11:41.387Z,15
2023-04-28T06:12:49.218Z,15
2023-04-28T06:13:56.027Z,15
2023-04-28T06:15:04.256Z,15
2023-04-28T06:16:11.416Z,14
2023-04-28T06:17:18.282Z,15
2023-04-28T06:18:25.252Z,14
2023-04-28T06:19:32.044Z,14
2023-04-28T06:20:39.021Z,14
2023-04-28T06:21:45.857Z,14
2023-04-28T06:22:52.697Z,14
2023-04-28T06:23:59.759Z,15
2023-04-28T06:25:06.753Z,15
2023-04-28T06:26:16.230Z,14
2023-04-28T06:27:21.473Z,14
2023-04-28T06:28:28.311Z,15
2023-04-28T06:29:35.183Z,13
2023-04-28T06:30:41.998Z,14
2023-04-28T06:31:48.866Z,13
2023-04-28T06:32:56.012Z,13
2023-04-28T06:34:03.259Z,14
2023-04-28T06:35:10.093Z,13
2023-04-28T06:36:18.084Z,13
2023-04-28T06:37:24.792Z,13
2023-04-28T06:38:31.705Z,14
2023-04-28T06:39:38.665Z,13
2023-04-28T06:40:45.908Z,13
2023-04-28T06:41:52.816Z,14
2023-04-28T06:42:59.595Z,14
2023-04-28T06:44:06.539Z,13
2023-04-28T06:45:13.617Z,14
2023-04-28T06:46:20.512Z,14
2023-04-28T06:47:27.599Z,14
2023-04-28T06:48:34.473Z,13
2023-04-28T06:49:41.347Z,13
2023-04-28T06:50:48.398Z,12
2023-04-28T06:51:55.292Z,13
2023-04-28T06:53:02.059Z,13
2023-04-28T06:54:09.727Z,12
2023-04-28T06:55:16.534Z,12
2023-04-28T06:56:23.383Z,12
2023-04-28T06:57:33.714Z,12
2023-04-28T06:58:40.672Z,11
2023-04-28T06:59:47.646Z,12
2023-04-28T07:00:56.672Z,12
2023-04-28T07:02:03.491Z,13
2023-04-28T07:03:10.407Z,12
2023-04-28T07:04:17.325Z,12
2023-04-28T07:05:24.201Z,10
2023-04-28T07:06:31.099Z,11
2023-04-28T07:07:38.013Z,11
2023-04-28T07:08:46.521Z,11
2023-04-28T07:09:53.551Z,12
2023-04-28T07:11:00.218Z,11
2023-04-28T07:12:07.145Z,11
2023-04-28T07:13:14.229Z,11
2023-04-28T07:14:21.254Z,11
2023-04-28T07:15:28.926Z,9
2023-04-28T07:16:35.995Z,10
2023-04-28T07:17:47.897Z,11
2023-04-28T07:18:56.198Z,9
2023-04-28T07:20:03.069Z,9
2023-04-28T07:21:10.359Z,9
2023-04-28T07:22:17.126Z,8
2023-04-28T07:23:23.983Z,8
2023-04-28T07:24:31.578Z,8
2023-04-28T07:25:38.366Z,8
2023-04-28T07:26:45.221Z,8
2023-04-28T07:27:52.138Z,8
2023-04-28T07:28:59.005Z,8
2023-04-28T07:30:15.121Z,8
2023-04-28T07:31:12.837Z,8
2023-04-28T07:32:20.568Z,9
2023-04-28T07:33:27.462Z,7
2023-04-28T07:34:34.365Z,8
2023-04-28T07:35:41.148Z,8
2023-04-28T07:36:48.091Z,8
2023-04-28T07:37:54.881Z,8
2023-04-28T07:39:01.742Z,8
2023-04-28T07:40:08.577Z,9
2023-04-28T07:41:15.574Z,9
2023-04-28T07:42:22.385Z,8
2023-04-28T07:43:29.327Z,8
2023-04-28T07:44:36.480Z,8
2023-04-28T07:45:43.715Z,8
2023-04-28T07:46:52.201Z,9
2023-04-28T07:47:57.441Z,8
2023-04-28T07:49:04.243Z,8
2023-04-28T07:50:11.163Z,9
2023-04-28T07:51:18.055Z,8
2023-04-28T07:52:24.922Z,9
2023-04-28T07:53:31.744Z,8
2023-04-28T07:54:38.658Z,9
2023-04-28T07:55:45.646Z,9
2023-04-28T07:56:52.597Z,9
2023-04-28T07:58:00.858Z,8
2023-04-28T07:59:07.941Z,8
2023-04-28T08:00:14.969Z,7
2023-04-28T08:01:21.836Z,6
2023-04-28T08:02:28.964Z,6
2023-04-28T08:03:36.702Z,6
2023-04-28T08:04:43.523Z,6
2023-04-28T08:05:50.276Z,5
2023-04-28T08:06:57.097Z,5
2023-04-28T08:08:04.065Z,5
2023-04-28T08:09:11.041Z,6
2023-04-28T08:10:18.074Z,5
2023-04-28T08:11:24.845Z,6
2023-04-28T08:12:31.660Z,6
2023-04-28T08:13:38.595Z,6
2023-04-28T08:14:45.474Z,6
2023-04-28T08:15:52.345Z,6
2023-04-28T08:17:04.405Z,6
2023-04-28T08:18:11.206Z,6
2023-04-28T08:19:18.094Z,6
2023-04-28T08:20:25.012Z,5
2023-04-28T08:21:31.826Z,6
2023-04-28T08:22:38.719Z,6
2023-04-28T08:23:45.584Z,5
2023-04-28T08:24:52.519Z,6
2023-04-28T08:25:59.358Z,5
2023-04-28T08:27:06.194Z,5
2023-04-28T08:28:13.240Z,5
2023-04-28T08:29:20.108Z,6
2023-04-28T08:30:26.941Z,6
2023-04-28T08:31:33.902Z,6
2023-04-28T08:32:40.769Z,6
2023-04-28T08:33:47.747Z,6
2023-04-28T08:34:54.582Z,5
2023-04-28T08:36:01.438Z,6
2023-04-28T08:37:08.354Z,5
2023-04-28T08:38:15.933Z,5
2023-04-28T08:39:22.843Z,6
2023-04-28T08:40:29.703Z,6
2023-04-28T08:41:36.508Z,6
2023-04-28T08:42:43.395Z,6
2023-04-28T08:43:50.283Z,6
2023-04-28T08:44:57.205Z,6
2023-04-28T08:46:04.192Z,5
2023-04-28T08:47:11.030Z,5
2023-04-28T08:48:18.347Z,6
2023-04-28T08:49:25.176Z,5
2023-04-28T08:50:31.951Z,5
2023-04-28T08:51:40.131Z,5
2023-04-28T08:52:48.605Z,5
2023-04-28T08:55:02.514Z,5
2023-04-28T08:56:09.505Z,5
2023-04-28T08:57:16.340Z,5
2023-04-28T08:58:24.084Z,5
2023-04-28T08:59:31.109Z,4
2023-04-28T09:00:37.909Z,5
2023-04-28T09:01:44.797Z,5
2023-04-28T09:02:51.671Z,5
2023-04-28T09:03:58.669Z,5
2023-04-28T09:05:08.592Z,5
2023-04-28T09:06:15.286Z,4
2023-04-28T09:07:22.162Z,5
2023-04-28T09:08:29.109Z,5
2023-04-28T09:09:37.857Z,4
2023-04-28T09:10:42.754Z,4
2023-04-28T09:11:49.587Z,4
2023-04-28T09:12:59.120Z,4
2023-04-28T09:14:05.993Z,4
2023-04-28T09:15:15.548Z,5
2023-04-28T09:16:30.507Z,5
2023-04-28T09:17:42.536Z,4
2023-04-28T09:18:52.743Z,4
2023-04-28T09:19:59.560Z,3
2023-04-28T09:21:06.743Z,4
2023-04-28T09:22:25.968Z,3
2023-04-28T09:23:20.507Z,4
2023-04-28T09:24:27.425Z,4
2023-04-28T09:25:39.847Z,4
2023-04-28T09:26:57.198Z,4
2023-04-28T09:28:04.194Z,4
2023-04-28T09:29:21.371Z,3
2023-04-28T09:30:28.172Z,4
2023-04-28T09:31:37.682Z,4
2023-04-28T09:32:44.531Z,4
2023-04-28T09:33:51.448Z,4
2023-04-28T09:35:01.230Z,4
2023-04-28T09:36:08.152Z,4
2023-04-28T09:37:15.049Z,4
2023-04-28T09:38:21.815Z,4
2023-04-28T09:39:28.644Z,4
2023-04-28T09:40:35.571Z,4
2023-04-28T09:41:52.832Z,4
2023-04-28T09:43:02.353Z,4
2023-04-28T09:44:06.415Z,4
2023-04-28T09:45:16.006Z,4
2023-04-28T09:46:22.928Z,4
2023-04-28T09:47:32.440Z,4
2023-04-28T09:48:39.225Z,4
2023-04-28T09:49:46.844Z,4
2023-04-28T09:50:58.823Z,4
2023-04-28T09:52:05.606Z,4
2023-04-28T09:53:15.958Z,4
2023-04-28T09:54:22.838Z,4
2023-04-28T09:55:29.735Z,4
2023-04-28T09:56:37.452Z,4
2023-04-28T09:57:47.311Z,4
2023-04-28T09:58:52.793Z,4
2023-04-28T10:00:02.453Z,3
2023-04-28T10:01:09.518Z,3
2023-04-28T10:02:36.144Z,4
2023-04-28T10:03:23.843Z,4
2023-04-28T10:04:30.213Z,4
2023-04-28T10:05:36.917Z,4
2023-04-28T10:06:43.812Z,5
2023-04-28T10:07:50.619Z,3
2023-04-28T10:08:57.492Z,3
2023-04-28T10:10:04.417Z,3
2023-04-28T10:11:12.071Z,3
2023-04-28T10:12:19.215Z,3
2023-04-28T10:13:26.041Z,3
2023-04-28T10:14:33.131Z,3
2023-04-28T10:15:39.866Z,3
2023-04-28T10:16:46.776Z,3
2023-04-28T10:17:53.655Z,3
2023-04-28T10:19:00.382Z,3
2023-04-28T10:20:07.232Z,3
2023-04-28T10:21:14.300Z,3
2023-04-28T10:22:21.998Z,3
2023-04-28T10:23:39.137Z,3
2023-04-28T10:24:57.146Z,3
2023-04-28T10:26:14.407Z,3
2023-04-28T10:27:24.071Z,3
2023-04-28T10:28:33.892Z,3
2023-04-28T10:29:40.783Z,3
2023-04-28T10:30:47.590Z,3
2023-04-28T10:32:02.204Z,3
2023-04-28T10:33:17.381Z,4
2023-04-28T10:34:26.972Z,3
2023-04-28T10:35:33.753Z,3
2023-04-28T10:36:48.593Z,3
2023-04-28T10:37:55.589Z,3
2023-04-28T10:39:05.270Z,3
2023-04-28T10:40:12.278Z,3
2023-04-28T10:41:27.266Z,3
2023-04-28T10:42:34.158Z,3
2023-04-28T10:43:48.742Z,3
2023-04-28T10:44:55.580Z,4
2023-04-28T10:46:02.580Z,3
2023-04-28T10:47:09.476Z,3
2023-04-28T10:48:16.234Z,3
2023-04-28T10:49:23.196Z,4
2023-04-28T10:50:38.939Z,4
2023-04-28T10:51:36.906Z,3
2023-04-28T10:52:43.875Z,3
2023-04-28T10:53:51.591Z,3
2023-04-28T10:54:58.429Z,3
2023-04-28T10:56:15.726Z,3
2023-04-28T10:57:25.266Z,3
2023-04-28T10:58:32.160Z,3
2023-04-28T10:59:38.913Z,4
2023-04-28T11:00:45.728Z,4
2023-04-28T11:01:52.705Z,3
2023-04-28T11:02:59.566Z,4
2023-04-28T11:04:07.044Z,4
2023-04-28T11:05:13.927Z,4
2023-04-28T11:06:20.652Z,4
2023-04-28T11:07:30.431Z,4
2023-04-28T11:08:37.266Z,4
2023-04-28T11:09:44.177Z,3
2023-04-28T11:10:51.037Z,3
2023-04-28T11:12:08.211Z,3
2023-04-28T11:13:15.013Z,3
2023-04-28T11:14:32.253Z,3
2023-04-28T11:15:39.655Z,3
2023-04-28T11:16:46.591Z,4
2023-04-28T11:17:59.290Z,3
2023-04-28T11:19:06.217Z,3
2023-04-28T11:20:13.082Z,4
2023-04-28T11:21:19.915Z,6
2023-04-28T11:22:27.682Z,4
2023-04-28T11:23:34.489Z,4
2023-04-28T11:24:42.353Z,4
2023-04-28T11:25:57.386Z,4
2023-04-28T11:27:04.466Z,3
2023-04-28T11:28:12.189Z,3
2023-04-28T11:29:19.056Z,3
2023-04-28T11:30:36.294Z,3
2023-04-28T11:31:43.222Z,3
2023-04-28T11:32:54.304Z,3
2023-04-28T11:34:01.202Z,4
2023-04-28T11:35:13.396Z,3
2023-04-28T11:36:21.200Z,3
2023-04-28T11:37:28.005Z,3
2023-04-28T11:38:34.869Z,4
2023-04-28T11:39:46.900Z,3
2023-04-28T11:40:53.793Z,3
2023-04-28T11:42:00.648Z,3
2023-04-28T11:43:12.710Z,3
2023-04-28T11:44:19.569Z,3
2023-04-28T11:45:26.679Z,3
2023-04-28T11:46:33.583Z,3
2023-04-28T11:47:40.472Z,3
2023-04-28T11:48:47.343Z,3
2023-04-28T11:50:02.424Z,3
2023-04-28T11:51:09.572Z,3
2023-04-28T11:52:26.760Z,3
2023-04-28T11:53:33.733Z,3
2023-04-28T11:54:45.656Z,3
2023-04-28T11:55:57.915Z,3
2023-04-28T11:57:10.621Z,3
2023-04-28T11:58:20.090Z,3
2023-04-28T11:59:27.299Z,4
2023-04-28T12:00:36.730Z,3
2023-04-28T12:01:44.485Z,3
2023-04-28T12:02:54.312Z,3
2023-04-28T12:04:01.196Z,3
2023-04-28T12:05:08.037Z,3
2023-04-28T12:06:15.245Z,3
2023-04-28T12:07:22.159Z,3
2023-04-28T12:08:29.943Z,4
2023-04-28T12:09:36.757Z,3
2023-04-28T12:10:50.402Z,3
2023-04-28T12:12:07.586Z,3
2023-04-28T12:13:15.483Z,3
2023-04-28T12:14:22.382Z,3
2023-04-28T12:15:31.652Z,3
2023-04-28T12:16:43.995Z,3
2023-04-28T12:17:51.667Z,3
2023-04-28T12:18:57.930Z,3
2023-04-28T12:20:05.838Z,3
2023-04-28T12:21:12.875Z,3
2023-04-28T12:22:24.929Z,3
2023-04-28T12:23:31.835Z,3
2023-04-28T12:24:38.825Z,3
2023-04-28T12:25:45.953Z,3
2023-04-28T12:26:52.895Z,3
2023-04-28T12:28:05.081Z,3
2023-04-28T12:29:11.879Z,3
2023-04-28T12:30:30.148Z,3
2023-04-28T12:31:37.103Z,3
2023-04-28T12:32:55.699Z,3
2023-04-28T12:34:02.551Z,3
2023-04-28T12:35:09.401Z,3
2023-04-28T12:36:16.252Z,3
2023-04-28T12:37:23.090Z,3
2023-04-28T12:38:31.115Z,3
2023-04-28T12:39:39.752Z,3
2023-04-28T12:40:45.894Z,3
2023-04-28T12:41:53.833Z,3
2023-04-28T12:43:03.116Z,2
2023-04-28T12:44:10.934Z,2
2023-04-28T12:45:17.945Z,3
2023-04-28T12:46:25.026Z,3
2023-04-28T12:47:36.340Z,3
2023-04-28T12:48:44.964Z,3
2023-04-28T12:49:52.712Z,3
2023-04-28T12:50:59.549Z,3
2023-04-28T12:52:06.442Z,3
2023-04-28T12:53:13.298Z,3
2023-04-28T12:54:20.097Z,3
2023-04-28T12:55:27.084Z,3
2023-04-28T12:56:34.026Z,2
2023-04-28T12:57:41.245Z,2
2023-04-28T12:58:48.418Z,3
2023-04-28T12:59:55.457Z,2
2023-04-28T13:01:02.584Z,2
2023-04-28T13:02:09.673Z,2
2023-04-28T13:03:16.602Z,2
2023-04-28T13:04:23.569Z,2
2023-04-28T13:05:30.280Z,2
2023-04-28T13:06:37.185Z,2
2023-04-28T13:07:44.035Z,2
2023-04-28T13:08:51.983Z,2
2023-04-28T13:09:58.829Z,2
2023-04-28T13:11:10.067Z,2
2023-04-28T13:12:12.647Z,2
2023-04-28T13:13:19.739Z,2
2023-04-28T13:14:27.652Z,2
2023-04-28T13:15:44.795Z,2
2023-04-28T13:16:52.375Z,2
2023-04-28T13:18:00.525Z,2
2023-04-28T13:19:07.284Z,3
2023-04-28T13:20:14.181Z,2
2023-04-28T13:21:21.944Z,2
2023-04-28T13:22:28.877Z,2
2023-04-28T13:23:35.786Z,2
2023-04-28T13:24:42.772Z,2
2023-04-28T13:25:49.714Z,2
2023-04-28T13:26:56.573Z,2
2023-04-28T13:28:03.450Z,2
2023-04-28T13:29:10.293Z,2
2023-04-28T13:30:17.177Z,2
2023-04-28T13:31:24.320Z,2
2023-04-28T13:32:32.083Z,2
2023-04-28T13:33:38.964Z,2
2023-04-28T13:34:58.512Z,3
2023-04-28T13:36:08.477Z,3
2023-04-28T13:37:25.361Z,2
2023-04-28T13:38:32.253Z,2
2023-04-28T13:39:39.107Z,2
2023-04-28T13:40:46.002Z,2
2023-04-28T13:41:53.943Z,4
2023-04-28T13:43:01.052Z,40
2023-04-28T13:44:08.017Z,27
2023-04-28T13:45:17.441Z,10
2023-04-28T13:46:21.847Z,5
2023-04-28T13:47:28.599Z,3
2023-04-28T13:48:35.501Z,2
2023-04-28T13:49:42.329Z,2
2023-04-28T13:50:50.559Z,2
2023-04-28T13:51:57.401Z,2
2023-04-28T13:53:04.216Z,2
2023-04-28T13:54:11.018Z,3
2023-04-28T13:55:17.927Z,3
2023-04-28T13:56:28.646Z,2
2023-04-28T13:57:35.486Z,2
2023-04-28T13:58:42.291Z,2
2023-04-28T13:59:50.310Z,3
2023-04-28T14:00:57.305Z,2
2023-04-28T14:02:04.035Z,2
2023-04-28T14:03:11.154Z,2
2023-04-28T14:04:18.058Z,2
2023-04-28T14:05:24.836Z,2
2023-04-28T14:06:33.037Z,2
2023-04-28T14:07:38.591Z,2
2023-04-28T14:08:48.408Z,2
2023-04-28T14:09:55.439Z,2
2023-04-28T14:11:02.321Z,2
2023-04-28T14:12:09.250Z,2
2023-04-28T14:13:16.073Z,2
2023-04-28T14:14:22.972Z,2
2023-04-28T14:15:32.713Z,2
2023-04-28T14:16:39.541Z,2
2023-04-28T14:17:46.418Z,2
2023-04-28T14:18:53.206Z,2
2023-04-28T14:20:00.052Z,2
2023-04-28T14:21:07.083Z,2
2023-04-28T14:22:14.156Z,2
2023-04-28T14:23:21.981Z,2
2023-04-28T14:24:28.851Z,2
2023-04-28T14:25:35.908Z,2
2023-04-28T14:26:42.783Z,2
2023-04-28T14:27:50.697Z,3
2023-04-28T14:28:57.612Z,2
2023-04-28T14:30:04.832Z,2
2023-04-28T14:31:11.900Z,2
2023-04-28T14:32:18.815Z,2
2023-04-28T14:33:26.628Z,2
2023-04-28T14:34:33.427Z,2
2023-04-28T14:35:40.406Z,2
2023-04-28T14:36:47.558Z,2
2023-04-28T14:37:54.378Z,2
2023-04-28T14:39:01.288Z,2
2023-04-28T14:40:08.131Z,2
2023-04-28T14:41:15.979Z,2
2023-04-28T14:42:23.860Z,2
2023-04-28T14:43:31.770Z,2
2023-04-28T14:44:39.741Z,2
2023-04-28T14:45:46.598Z,3
2023-04-28T14:46:54.425Z,2
2023-04-28T14:48:01.234Z,2
2023-04-28T14:49:08.151Z,3
2023-04-28T14:50:15.087Z,2
2023-04-28T14:51:21.919Z,2
2023-04-28T14:52:28.790Z,2
2023-04-28T14:53:35.695Z,3
2023-04-28T14:54:43.565Z,2
2023-04-28T14:55:50.666Z,3
2023-04-28T14:56:57.705Z,2
2023-04-28T14:58:04.484Z,2
2023-04-28T14:59:11.400Z,2
2023-04-28T15:00:18.259Z,2
2023-04-28T15:01:26.000Z,2
2023-04-28T15:02:33.103Z,2
2023-04-28T15:03:39.919Z,2
2023-04-28T15:04:47.816Z,2
2023-04-28T15:05:54.337Z,2
2023-04-28T15:07:02.929Z,2
2023-04-28T15:08:09.956Z,2
2023-04-28T15:09:16.830Z,2
2023-04-28T15:10:23.707Z,2
2023-04-28T15:11:30.582Z,2
2023-04-28T15:12:38.176Z,3
2023-04-28T15:13:46.115Z,3
2023-04-28T15:14:53.170Z,3
2023-04-28T15:16:00.078Z,3
2023-04-28T15:17:07.011Z,2
2023-04-28T15:18:13.836Z,2
2023-04-28T15:19:20.735Z,2
2023-04-28T15:20:29.212Z,3
2023-04-28T15:21:34.532Z,2
2023-04-28T15:22:41.321Z,2
2023-04-28T15:23:48.186Z,2
2023-04-28T15:24:55.978Z,2
2023-04-28T15:26:02.976Z,2
2023-04-28T15:27:10.358Z,2
2023-04-28T15:28:17.588Z,3
2023-04-28T15:29:24.355Z,3
2023-04-28T15:30:32.269Z,2
2023-04-28T15:31:39.163Z,2
2023-04-28T15:32:46.094Z,2
2023-04-28T15:33:52.952Z,2
2023-04-28T15:34:59.850Z,3
2023-04-28T15:36:06.810Z,3
2023-04-28T15:37:14.283Z,2
2023-04-28T15:38:31.406Z,3
2023-04-28T15:39:38.297Z,3
2023-04-28T15:40:45.148Z,3
2023-04-28T15:41:52.059Z,2
2023-04-28T15:42:59.033Z,3
2023-04-28T15:44:05.864Z,2
2023-04-28T15:45:13.373Z,3
2023-04-28T15:46:20.280Z,2
2023-04-28T15:47:27.642Z,3
2023-04-28T15:48:34.829Z,2
2023-04-28T15:49:41.831Z,3
2023-04-28T15:50:49.585Z,3
2023-04-28T15:51:56.544Z,2
2023-04-28T15:53:03.375Z,3
2023-04-28T15:54:11.147Z,3
2023-04-28T15:55:18.242Z,3
2023-04-28T15:56:26.184Z,3
2023-04-28T15:57:33.941Z,3
2023-04-28T15:58:40.775Z,3
2023-04-28T15:59:48.592Z,3
2023-04-28T16:00:56.414Z,3
2023-04-28T16:02:03.311Z,2
2023-04-28T16:03:12.385Z,2
2023-04-28T16:04:19.273Z,2
2023-04-28T16:05:26.068Z,3
2023-04-28T16:06:32.904Z,3
2023-04-28T16:07:39.790Z,3
2023-04-28T16:08:47.438Z,3
2023-04-28T16:09:54.359Z,3
2023-04-28T16:11:01.418Z,3
2023-04-28T16:12:10.591Z,3
2023-04-28T16:13:17.378Z,3
2023-04-28T16:14:24.251Z,3
2023-04-28T16:15:31.084Z,3
2023-04-28T16:16:37.965Z,3
2023-04-28T16:17:45.697Z,3
2023-04-28T16:18:52.528Z,3
2023-04-28T16:19:59.439Z,3
2023-04-28T16:21:06.476Z,3
2023-04-28T16:22:14.202Z,2
2023-04-28T16:23:21.160Z,3